createdAt,value
2023-01-29T00:02:21.555Z,3.50
2023-01-29T00:04:51.007Z,3.50
2023-01-29T00:07:19.066Z,3.50
2023-01-29T00:09:48.060Z,3.50
2023-01-29T00:12:16.480Z,3.60
2023-01-29T00:14:44.647Z,3.50
2023-01-29T00:17:12.830Z,3.60
2023-01-29T00:19:40.977Z,3.50
2023-01-29T00:22:10.555Z,3.50
2023-01-29T00:24:38.762Z,3.50
2023-01-29T00:27:06.951Z,3.50
2023-01-29T00:29:35.049Z,3.50
2023-01-29T00:32:03.294Z,3.50
2023-01-29T00:34:31.455Z,3.50
2023-01-29T00:37:05.163Z,3.50
2023-01-29T00:39:47.453Z,3.50
2023-01-29T00:42:33.776Z,3.50
2023-01-29T00:45:01.857Z,3.50
2023-01-29T00:47:33.689Z,3.50
2023-01-29T00:50:02.806Z,3.50
2023-01-29T00:52:31.086Z,3.50
2023-01-29T00:55:01.573Z,3.50
2023-01-29T00:57:32.787Z,3.40
2023-01-29T01:00:01.007Z,3.40
2023-01-29T01:02:47.221Z,3.40
2023-01-29T01:05:18.930Z,3.50
2023-01-29T01:07:48.143Z,3.50
2023-01-29T01:10:21.964Z,3.50
2023-01-29T01:12:54.176Z,3.50
2023-01-29T01:15:23.994Z,3.50
2023-01-29T01:17:55.787Z,3.50
2023-01-29T01:20:24.097Z,3.50
2023-01-29T01:22:52.815Z,3.50
2023-01-29T01:25:22.692Z,3.50
2023-01-29T01:27:53.733Z,3.50
2023-01-29T01:30:22.253Z,3.50
2023-01-29T01:32:50.347Z,3.50
2023-01-29T01:35:18.533Z,3.50
2023-01-29T01:37:47.040Z,3.50
2023-01-29T01:40:19.453Z,3.50
2023-01-29T01:42:50.938Z,3.50
2023-01-29T01:45:27.839Z,3.50
2023-01-29T01:48:00.535Z,3.50
2023-01-29T01:50:33.367Z,3.50
2023-01-29T01:53:05.840Z,3.50
2023-01-29T01:55:36.380Z,3.50
2023-01-29T01:58:10.947Z,3.50
2023-01-29T02:00:40.177Z,3.50
2023-01-29T02:03:28.773Z,3.50
2023-01-29T02:06:16.607Z,3.50
2023-01-29T02:09:08.645Z,3.50
2023-01-29T02:11:37.529Z,3.50
2023-01-29T02:14:07.480Z,3.40
2023-01-29T02:16:36.540Z,3.40
2023-01-29T02:19:11.322Z,3.30
2023-01-29T02:22:06.923Z,3.30
2023-01-29T02:24:59.960Z,3.30
2023-01-29T02:27:36.578Z,3.30
2023-01-29T02:30:12.451Z,3.30
2023-01-29T02:32:54.483Z,3.30
2023-01-29T02:35:31.895Z,3.30
2023-01-29T02:38:10.715Z,3.30
2023-01-29T02:40:44.596Z,3.30
2023-01-29T02:43:25.117Z,3.30
2023-01-29T02:46:04.676Z,3.30
2023-01-29T02:48:41.756Z,3.30
2023-01-29T02:51:18.334Z,3.30
2023-01-29T02:53:54.501Z,3.30
2023-01-29T02:56:27.983Z,3.20
2023-01-29T02:59:01.290Z,3.30
2023-01-29T03:01:36.798Z,3.30
2023-01-29T03:04:10.539Z,3.20
2023-01-29T03:06:42.281Z,3.20
2023-01-29T03:09:14.728Z,3.20
2023-01-29T03:11:47.168Z,3.30
2023-01-29T03:14:18.039Z,3.20
2023-01-29T03:16:51.790Z,3.30
2023-01-29T03:19:21.853Z,3.30
2023-01-29T03:21:59.150Z,3.20
2023-01-29T03:24:53.705Z,3.20
2023-01-29T03:27:43.601Z,3.20
2023-01-29T03:30:34.812Z,3.30
2023-01-29T03:33:07.708Z,3.30
2023-01-29T03:35:39.604Z,3.30
2023-01-29T03:38:11.098Z,3.30
2023-01-29T03:40:47.529Z,3.30
2023-01-29T03:43:24.856Z,3.30
2023-01-29T03:46:02.768Z,3.30
2023-01-29T03:48:37.677Z,3.30
2023-01-29T03:51:21.157Z,3.30
2023-01-29T03:53:54.785Z,3.20
2023-01-29T03:56:35.497Z,3.20
2023-01-29T03:59:11.994Z,3.20
2023-01-29T04:01:47.534Z,3.20
2023-01-29T04:04:22.208Z,3.20
2023-01-29T04:06:53.098Z,3.20
2023-01-29T04:09:25.064Z,3.20
2023-01-29T04:11:58.688Z,3.20
2023-01-29T04:14:26.965Z,3.20
2023-01-29T04:16:58.827Z,3.20
2023-01-29T04:19:29.241Z,3.20
2023-01-29T04:22:06.981Z,3.20
2023-01-29T04:24:36.035Z,3.20
2023-01-29T04:27:20.875Z,3.20
2023-01-29T04:30:03.642Z,3.20
2023-01-29T04:32:39.853Z,3.20
2023-01-29T04:35:19.799Z,3.20
2023-01-29T04:37:58.081Z,3.20
2023-01-29T04:40:32.420Z,3.20
2023-01-29T04:43:07.719Z,3.10
2023-01-29T04:45:49.380Z,3.20
2023-01-29T04:48:23.490Z,3.20
2023-01-29T04:50:58.567Z,3.10
2023-01-29T04:53:33.990Z,3.20
2023-01-29T04:56:10.253Z,3.20
2023-01-29T04:58:41.082Z,3.20
2023-01-29T05:01:13.086Z,3.20
2023-01-29T05:03:44.180Z,3.20
2023-01-29T05:06:16.912Z,3.20
2023-01-29T05:08:45.463Z,3.30
2023-01-29T05:11:14.340Z,3.30
2023-01-29T05:13:44.084Z,3.30
2023-01-29T05:16:18.440Z,3.30
2023-01-29T05:18:47.072Z,3.30
2023-01-29T05:21:16.580Z,3.30
2023-01-29T05:23:53.212Z,3.30
2023-01-29T05:26:40.078Z,3.30
2023-01-29T05:29:08.209Z,3.30
2023-01-29T05:31:36.308Z,3.30
2023-01-29T05:34:04.420Z,3.30
2023-01-29T05:36:33.818Z,3.30
2023-01-29T05:39:02.952Z,3.30
2023-01-29T05:41:31.079Z,3.30
2023-01-29T05:43:59.454Z,3.30
2023-01-29T05:46:27.678Z,3.30
2023-01-29T05:48:55.809Z,3.30
2023-01-29T05:51:23.943Z,3.30
2023-01-29T05:53:53.366Z,3.30
2023-01-29T05:56:21.513Z,3.30
2023-01-29T05:58:49.732Z,3.30
2023-01-29T06:01:19.958Z,3.30
2023-01-29T06:03:48.328Z,3.30
2023-01-29T06:06:17.022Z,3.30
2023-01-29T06:08:45.083Z,3.30
2023-01-29T06:11:16.450Z,3.40
2023-01-29T06:13:44.712Z,3.40
2023-01-29T06:16:14.400Z,3.40
2023-01-29T06:18:43.050Z,3.40
2023-01-29T06:21:13.413Z,3.40
2023-01-29T06:23:41.898Z,3.40
2023-01-29T06:26:12.591Z,3.40
2023-01-29T06:28:42.354Z,3.30
2023-01-29T06:31:30.411Z,3.40
2023-01-29T06:33:59.885Z,3.40
2023-01-29T06:36:28.078Z,3.40
2023-01-29T06:38:56.128Z,3.40
2023-01-29T06:41:25.676Z,3.40
2023-01-29T06:43:55.174Z,3.40
2023-01-29T06:46:23.443Z,3.40
2023-01-29T06:48:51.666Z,3.40
2023-01-29T06:51:21.346Z,3.40
2023-01-29T06:53:49.367Z,3.40
2023-01-29T06:56:17.474Z,3.50
2023-01-29T06:58:45.540Z,3.50
2023-01-29T07:01:29.317Z,3.50
2023-01-29T07:04:03.270Z,3.50
2023-01-29T07:06:32.022Z,3.50
2023-01-29T07:09:00.200Z,3.50
2023-01-29T07:11:28.253Z,3.50
2023-01-29T07:13:56.287Z,3.40
2023-01-29T07:16:26.406Z,3.40
2023-01-29T07:18:54.740Z,3.40
2023-01-29T07:21:23.072Z,3.40
2023-01-29T07:23:51.147Z,3.40
2023-01-29T07:26:19.731Z,3.40
2023-01-29T07:28:47.776Z,3.50
2023-01-29T07:31:16.832Z,3.50
2023-01-29T07:33:47.193Z,3.40
2023-01-29T07:36:15.988Z,3.50
2023-01-29T07:38:44.377Z,3.50
2023-01-29T07:41:13.636Z,3.50
2023-01-29T07:43:41.635Z,3.50
2023-01-29T07:46:10.092Z,3.60
2023-01-29T07:48:38.281Z,3.50
2023-01-29T07:51:07.942Z,3.60
2023-01-29T07:53:37.059Z,3.60
2023-01-29T07:56:05.625Z,3.60
2023-01-29T07:58:35.742Z,3.60
2023-01-29T08:01:08.036Z,3.60
2023-01-29T08:03:36.573Z,3.60
2023-01-29T08:06:05.101Z,3.60
2023-01-29T08:08:35.893Z,3.70
2023-01-29T08:11:05.695Z,3.70
2023-01-29T08:13:34.231Z,3.70
2023-01-29T08:16:03.692Z,3.70
2023-01-29T08:18:32.453Z,3.70
2023-01-29T08:21:01.386Z,3.70
2023-01-29T08:23:29.511Z,3.70
2023-01-29T08:25:59.089Z,3.70
2023-01-29T08:28:27.454Z,3.70
2023-01-29T08:30:55.753Z,3.70
2023-01-29T08:33:37.174Z,3.70
2023-01-29T08:36:08.036Z,3.70
2023-01-29T08:38:36.474Z,3.80
2023-01-29T08:41:06.293Z,3.80
2023-01-29T08:43:35.279Z,3.80
2023-01-29T08:46:05.261Z,3.80
2023-01-29T08:48:33.611Z,3.80
2023-01-29T08:51:02.655Z,3.80
2023-01-29T08:53:30.955Z,3.90
2023-01-29T08:55:59.065Z,3.80
2023-01-29T08:58:28.580Z,3.80
2023-01-29T09:00:56.720Z,3.90
2023-01-29T09:03:24.915Z,3.90
2023-01-29T09:05:53.019Z,3.90
2023-01-29T09:08:21.080Z,3.90
2023-01-29T09:10:49.120Z,3.90
2023-01-29T09:13:17.331Z,4.00
2023-01-29T09:15:46.803Z,4.00
2023-01-29T09:18:14.765Z,4.00
2023-01-29T09:20:42.879Z,4.00
2023-01-29T09:23:12.149Z,4.00
2023-01-29T09:25:40.261Z,4.10
2023-01-29T09:28:08.371Z,4.10
2023-01-29T09:30:38.178Z,4.10
2023-01-29T09:33:08.535Z,4.10
2023-01-29T09:35:37.058Z,4.10
2023-01-29T09:38:05.171Z,4.10
2023-01-29T09:40:39.481Z,4.20
2023-01-29T09:43:14.066Z,4.20
2023-01-29T09:45:50.965Z,4.30
2023-01-29T09:48:23.328Z,4.30
2023-01-29T09:50:55.127Z,4.30
2023-01-29T09:53:29.621Z,4.30
2023-01-29T09:56:03.196Z,4.30
2023-01-29T09:58:34.806Z,4.40
2023-01-29T10:01:14.451Z,4.40
2023-01-29T10:04:08.589Z,4.40
2023-01-29T10:06:50.001Z,4.50
2023-01-29T10:09:49.067Z,4.50
2023-01-29T10:12:31.953Z,4.50
2023-01-29T10:15:08.680Z,4.50
2023-01-29T10:17:51.541Z,4.50
2023-01-29T10:20:45.157Z,4.50
2023-01-29T10:23:21.391Z,4.60
2023-01-29T10:25:50.736Z,4.60
2023-01-29T10:28:21.496Z,4.60
2023-01-29T10:30:51.684Z,4.70
2023-01-29T10:33:29.551Z,4.70
2023-01-29T10:36:04.552Z,4.70
2023-01-29T10:38:41.071Z,4.80
2023-01-29T10:41:43.941Z,4.80
2023-01-29T10:44:35.513Z,4.80
2023-01-29T10:47:27.587Z,4.80
2023-01-29T10:50:17.094Z,4.80
2023-01-29T10:53:04.410Z,4.80
2023-01-29T10:55:47.648Z,4.90
2023-01-29T10:58:26.753Z,4.80
2023-01-29T11:00:54.833Z,4.80
2023-01-29T11:03:28.384Z,4.80
2023-01-29T11:06:02.949Z,4.80
2023-01-29T11:08:38.480Z,4.80
2023-01-29T11:11:09.871Z,4.90
2023-01-29T11:13:42.359Z,4.90
2023-01-29T11:16:11.206Z,4.90
2023-01-29T11:18:53.922Z,5.00
2023-01-29T11:21:22.944Z,5.00
2023-01-29T11:24:05.722Z,5.00
2023-01-29T11:26:36.709Z,5.00
2023-01-29T11:29:05.986Z,5.00
2023-01-29T11:31:38.558Z,5.10
2023-01-29T11:34:14.784Z,5.00
2023-01-29T11:36:44.941Z,5.00
2023-01-29T11:39:24.705Z,5.00
2023-01-29T11:41:57.348Z,5.00
2023-01-29T11:44:30.907Z,5.10
2023-01-29T11:47:11.403Z,5.00
2023-01-29T11:49:40.779Z,5.10
2023-01-29T11:52:11.215Z,5.10
2023-01-29T11:54:45.347Z,5.10
2023-01-29T11:57:25.506Z,5.10
2023-01-29T11:59:56.197Z,5.10
2023-01-29T12:02:44.274Z,5.10
2023-01-29T12:05:17.382Z,5.10
2023-01-29T12:07:48.985Z,5.10
2023-01-29T12:10:36.529Z,5.10
2023-01-29T12:13:22.681Z,5.10
2023-01-29T12:15:51.364Z,5.10
2023-01-29T12:18:29.781Z,5.10
2023-01-29T12:21:02.573Z,5.10
2023-01-29T12:23:39.336Z,5.10
2023-01-29T12:26:15.960Z,5.10
2023-01-29T12:28:51.601Z,5.10
2023-01-29T12:31:30.192Z,5.10
2023-01-29T12:34:05.693Z,5.10
2023-01-29T12:36:39.649Z,5.10
2023-01-29T12:39:09.945Z,5.20
2023-01-29T12:41:46.263Z,5.10
2023-01-29T12:44:17.999Z,5.10
2023-01-29T12:46:50.492Z,5.20
2023-01-29T12:49:27.096Z,5.20
2023-01-29T12:52:00.456Z,5.20
2023-01-29T12:54:36.199Z,5.20
2023-01-29T12:57:11.490Z,5.20
2023-01-29T12:59:44.176Z,5.20
2023-01-29T13:02:21.532Z,5.20
2023-01-29T13:04:56.903Z,5.20
2023-01-29T13:07:29.482Z,5.20
2023-01-29T13:10:05.641Z,5.20
2023-01-29T13:12:35.739Z,5.20
2023-01-29T13:15:11.407Z,5.20
2023-01-29T13:17:44.189Z,5.20
2023-01-29T13:20:19.136Z,5.20
2023-01-29T13:22:49.279Z,5.20
2023-01-29T13:25:18.979Z,5.20
2023-01-29T13:27:49.499Z,5.30
2023-01-29T13:30:29.193Z,5.30
2023-01-29T13:33:09.214Z,5.40
2023-01-29T13:35:40.964Z,5.50
2023-01-29T13:38:24.755Z,5.50
2023-01-29T13:41:02.128Z,5.60
2023-01-29T13:43:37.216Z,5.60
2023-01-29T13:46:10.731Z,5.60
2023-01-29T13:48:43.569Z,5.60
2023-01-29T13:51:16.943Z,5.60
2023-01-29T13:53:52.735Z,5.60
2023-01-29T13:56:42.619Z,5.70
2023-01-29T13:59:24.144Z,5.70
2023-01-29T14:02:03.978Z,5.70
2023-01-29T14:04:33.172Z,5.70
2023-01-29T14:07:04.098Z,5.70
2023-01-29T14:10:04.800Z,5.70
2023-01-29T14:12:51.044Z,5.70
2023-01-29T14:15:34.768Z,5.70
2023-01-29T14:18:20.919Z,5.70
2023-01-29T14:20:59.394Z,5.70
2023-01-29T14:23:41.098Z,5.70
2023-01-29T14:26:23.472Z,5.70
2023-01-29T14:28:58.568Z,5.80
2023-01-29T14:31:41.662Z,5.80
2023-01-29T14:34:19.455Z,5.80
2023-01-29T14:36:50.431Z,5.70
2023-01-29T14:39:30.273Z,5.70
2023-01-29T14:41:59.308Z,5.70
2023-01-29T14:45:06.860Z,5.80
2023-01-29T14:47:59.648Z,5.80
2023-01-29T14:50:55.104Z,5.80
2023-01-29T14:53:48.535Z,5.80
2023-01-29T14:56:20.108Z,5.80
2023-01-29T14:58:51.082Z,5.80
2023-01-29T15:01:26.309Z,5.80
2023-01-29T15:04:01.392Z,5.90
2023-01-29T15:06:35.110Z,5.80
2023-01-29T15:09:13.180Z,5.80
2023-01-29T15:11:49.616Z,5.80
2023-01-29T15:14:30.909Z,5.80
2023-01-29T15:17:17.178Z,5.80
2023-01-29T15:19:48.982Z,5.80
2023-01-29T15:22:18.687Z,5.70
2023-01-29T15:24:48.196Z,5.70
2023-01-29T15:27:19.246Z,5.70
2023-01-29T15:29:54.366Z,5.70
2023-01-29T15:32:30.575Z,5.70
2023-01-29T15:35:01.413Z,5.70
2023-01-29T15:37:32.074Z,5.70
2023-01-29T15:40:02.429Z,5.70
2023-01-29T15:42:42.455Z,5.70
2023-01-29T15:45:23.260Z,5.60
2023-01-29T15:47:52.351Z,5.60
2023-01-29T15:50:22.935Z,5.60
2023-01-29T15:52:53.111Z,5.60
2023-01-29T15:55:24.212Z,5.50
2023-01-29T15:57:52.622Z,5.50
2023-01-29T16:00:24.753Z,5.50
2023-01-29T16:02:53.066Z,5.50
2023-01-29T16:05:26.532Z,5.50
2023-01-29T16:07:56.447Z,5.40
2023-01-29T16:10:27.496Z,5.40
2023-01-29T16:12:56.197Z,5.40
2023-01-29T16:15:32.321Z,5.40
2023-01-29T16:18:01.763Z,5.30
2023-01-29T16:20:38.050Z,5.30
2023-01-29T16:23:07.494Z,5.20
2023-01-29T16:25:37.539Z,5.20
2023-01-29T16:28:07.557Z,5.10
2023-01-29T16:30:35.755Z,5.00
2023-01-29T16:33:05.762Z,4.90
2023-01-29T16:35:36.818Z,4.90
2023-01-29T16:38:14.557Z,4.90
2023-01-29T16:41:15.429Z,4.90
2023-01-29T16:43:48.934Z,4.90
2023-01-29T16:46:25.224Z,4.90
2023-01-29T16:48:54.177Z,4.80
2023-01-29T16:51:29.724Z,4.80
2023-01-29T16:54:00.663Z,4.80
2023-01-29T16:56:31.940Z,4.70
2023-01-29T16:59:01.231Z,4.80
2023-01-29T17:01:31.001Z,4.70
2023-01-29T17:04:08.385Z,4.70
2023-01-29T17:06:38.332Z,4.70
2023-01-29T17:09:07.813Z,4.70
2023-01-29T17:11:39.438Z,4.70
2023-01-29T17:14:09.093Z,4.70
2023-01-29T17:16:49.785Z,4.70
2023-01-29T17:19:20.840Z,4.70
2023-01-29T17:21:50.488Z,4.70
2023-01-29T17:24:18.592Z,4.70
2023-01-29T17:26:46.872Z,4.70
2023-01-29T17:29:18.982Z,4.70
2023-01-29T17:31:47.192Z,4.70
2023-01-29T17:34:17.818Z,4.80
2023-01-29T17:36:46.552Z,4.70
2023-01-29T17:39:20.159Z,4.80
2023-01-29T17:41:51.990Z,4.80
2023-01-29T17:44:20.473Z,4.80
2023-01-29T17:46:49.374Z,4.80
2023-01-29T17:49:24.718Z,4.80
2023-01-29T17:51:53.396Z,4.80
2023-01-29T17:54:23.882Z,4.80
2023-01-29T17:56:52.956Z,4.90
2023-01-29T17:59:22.957Z,4.90
2023-01-29T18:01:52.038Z,4.90
2023-01-29T18:04:20.160Z,4.90
2023-01-29T18:06:50.227Z,4.90
2023-01-29T18:09:20.445Z,4.90
2023-01-29T18:11:51.229Z,4.90
2023-01-29T18:14:19.305Z,4.90
2023-01-29T18:16:47.837Z,4.90
2023-01-29T18:19:20.521Z,4.90
2023-01-29T18:21:48.875Z,4.90
2023-01-29T18:24:17.279Z,4.90
2023-01-29T18:26:45.401Z,4.90
2023-01-29T18:29:14.992Z,4.90
2023-01-29T18:31:43.175Z,4.80
2023-01-29T18:34:11.363Z,4.80
2023-01-29T18:36:39.563Z,4.80
2023-01-29T18:39:07.642Z,4.80
2023-01-29T18:41:35.762Z,4.80
2023-01-29T18:44:03.841Z,4.80
2023-01-29T18:46:33.454Z,4.80
2023-01-29T18:49:01.462Z,4.80
2023-01-29T18:51:29.578Z,4.80
2023-01-29T18:53:57.655Z,4.80
2023-01-29T18:56:25.843Z,4.80
2023-01-29T18:58:56.278Z,4.80
2023-01-29T19:01:24.911Z,4.80
2023-01-29T19:03:54.424Z,4.70
2023-01-29T19:06:22.588Z,4.80
2023-01-29T19:08:50.829Z,4.80
2023-01-29T19:11:18.930Z,4.80
2023-01-29T19:13:47.992Z,4.80
2023-01-29T19:16:15.992Z,4.80
2023-01-29T19:18:44.633Z,4.70
2023-01-29T19:21:16.024Z,4.70
2023-01-29T19:23:44.872Z,4.70
2023-01-29T19:26:13.345Z,4.70
2023-01-29T19:28:42.102Z,4.70
2023-01-29T19:31:10.933Z,4.70
2023-01-29T19:33:39.342Z,4.70
2023-01-29T19:36:08.353Z,4.70
2023-01-29T19:38:38.710Z,4.70
2023-01-29T19:41:07.233Z,4.70
2023-01-29T19:43:35.342Z,4.70
2023-01-29T19:46:03.730Z,4.70
2023-01-29T19:48:31.818Z,4.70
2023-01-29T19:51:01.489Z,4.70
2023-01-29T19:53:30.012Z,4.70
2023-01-29T19:56:00.407Z,4.80
2023-01-29T19:58:28.855Z,4.70
2023-01-29T20:00:58.299Z,4.70
2023-01-29T20:03:27.998Z,4.80
2023-01-29T20:05:56.513Z,4.80
2023-01-29T20:08:24.892Z,4.80
2023-01-29T20:10:52.957Z,4.80
2023-01-29T20:13:22.655Z,4.80
2023-01-29T20:15:52.306Z,4.80
2023-01-29T20:18:20.679Z,4.80
2023-01-29T20:20:50.688Z,4.80
2023-01-29T20:23:36.584Z,4.80
2023-01-29T20:26:07.035Z,4.80
2023-01-29T20:28:36.833Z,4.80
2023-01-29T20:31:05.996Z,4.80
2023-01-29T20:33:34.700Z,4.80
2023-01-29T20:36:04.964Z,4.90
2023-01-29T20:38:34.657Z,4.90
2023-01-29T20:41:07.935Z,4.90
2023-01-29T20:43:37.537Z,4.90
2023-01-29T20:46:06.478Z,4.90
2023-01-29T20:48:35.038Z,4.90
2023-01-29T20:51:08.047Z,5.00
2023-01-29T20:53:36.863Z,5.00
2023-01-29T20:56:05.713Z,5.00
2023-01-29T20:58:34.285Z,5.10
2023-01-29T21:01:08.422Z,5.10
2023-01-29T21:03:36.524Z,5.10
2023-01-29T21:06:04.787Z,5.10
2023-01-29T21:08:33.395Z,5.10
2023-01-29T21:11:01.482Z,5.10
2023-01-29T21:13:29.613Z,5.20
2023-01-29T21:15:57.796Z,5.20
2023-01-29T21:18:27.607Z,5.20
2023-01-29T21:20:55.833Z,5.20
2023-01-29T21:23:23.951Z,5.20
2023-01-29T21:25:52.178Z,5.30
2023-01-29T21:28:20.211Z,5.30
2023-01-29T21:30:48.346Z,5.30
2023-01-29T21:33:16.492Z,5.30
2023-01-29T21:35:45.935Z,5.30
2023-01-29T21:38:14.092Z,5.40
2023-01-29T21:40:42.207Z,5.40
2023-01-29T21:43:12.592Z,5.40
2023-01-29T21:45:41.498Z,5.40
2023-01-29T21:48:12.369Z,5.40
2023-01-29T21:50:40.444Z,5.40
2023-01-29T21:53:09.903Z,5.40
2023-01-29T21:55:38.075Z,5.50
2023-01-29T21:58:06.272Z,5.50
2023-01-29T22:00:34.425Z,5.50
2023-01-29T22:03:02.678Z,5.50
2023-01-29T22:05:30.758Z,5.60
2023-01-29T22:07:58.926Z,5.60
2023-01-29T22:10:28.649Z,5.60
2023-01-29T22:12:57.850Z,5.70
2023-01-29T22:15:25.937Z,5.70
2023-01-29T22:17:53.858Z,5.70
2023-01-29T22:20:29.565Z,5.70
2023-01-29T22:23:00.346Z,5.80
2023-01-29T22:25:29.985Z,5.80
2023-01-29T22:27:58.073Z,5.80
2023-01-29T22:30:26.442Z,5.80
2023-01-29T22:32:54.547Z,5.80
2023-01-29T22:35:22.725Z,5.90
2023-01-29T22:37:50.848Z,5.90
2023-01-29T22:40:19.542Z,5.90
2023-01-29T22:42:49.108Z,5.90
2023-01-29T22:45:17.312Z,6.00
2023-01-29T22:47:45.455Z,6.00
2023-01-29T22:50:14.241Z,6.00
2023-01-29T22:52:42.801Z,6.00
2023-01-29T22:55:13.170Z,6.10
2023-01-29T22:57:41.464Z,6.10
2023-01-29T23:00:12.665Z,6.10
2023-01-29T23:02:40.724Z,6.10
2023-01-29T23:05:09.518Z,6.10
2023-01-29T23:07:37.619Z,6.10
2023-01-29T23:10:07.249Z,6.10
2023-01-29T23:12:35.447Z,6.20
2023-01-29T23:15:03.595Z,6.20
2023-01-29T23:17:32.852Z,6.20
2023-01-29T23:20:01.030Z,6.20
2023-01-29T23:22:29.161Z,6.30
2023-01-29T23:24:57.356Z,6.30
2023-01-29T23:27:24.593Z,6.30
2023-01-29T23:29:52.832Z,6.30
2023-01-29T23:32:22.213Z,6.40
2023-01-29T23:34:51.646Z,6.40
2023-01-29T23:37:19.756Z,6.40
2023-01-29T23:39:48.073Z,6.40
2023-01-29T23:42:16.252Z,6.40
2023-01-29T23:44:45.040Z,6.50
2023-01-29T23:47:13.147Z,6.50
2023-01-29T23:49:41.225Z,6.50
2023-01-29T23:52:10.614Z,6.50
2023-01-29T23:54:38.663Z,6.50
2023-01-29T23:57:06.766Z,6.60
2023-01-29T23:59:34.848Z,6.60
